Time;durP1;ratioP1;P1;durP2;ratioP2;P2;SDS_P1;SDS_P2;PMS_P1;PMS_P2;Temp;Humidity;BMP_temperature;BMP_pressure;BME280_temperature;BME280_humidity;BME280_pressure;Samples;Min_cycle;Max_cycle;Signal;HPM_P1;HPM_P2
2021/07/10 00:01:43;;;;;;;43.85;28.48;;;;;;;19.78;78.86;99853.25;254217;1108;117013;-67
2021/07/10 00:06:47;;;;;;;35.77;27.83;;;;;;;19.72;78.84;99853.61;254873;1102;115622;-68
2021/07/10 00:11:51;;;;;;;41.50;29.57;;;;;;;19.72;78.82;99859.02;255484;1108;115255;-68
2021/07/10 00:16:55;;;;;;;35.03;25.73;;;;;;;19.55;78.25;99851.42;255216;1108;115533;-68
2021/07/10 00:22:00;;;;;;;33.20;27.18;;;;;;;19.50;78.83;99851.45;253266;1107;115112;-68
2021/07/10 00:27:04;;;;;;;28.83;22.45;;;;;;;19.49;78.79;99866.06;254372;1107;115934;-67
2021/07/10 00:32:07;;;;;;;25.75;21.15;;;;;;;19.35;78.43;99854.33;253236;1103;115922;-67
2021/07/10 00:37:10;;;;;;;27.10;19.93;;;;;;;19.28;78.41;99859.28;254756;1107;115338;-66
2021/07/10 00:42:17;;;;;;;18.23;16.23;;;;;;;19.17;78.55;99855.91;253630;1108;115652;-66
2021/07/10 00:47:20;;;;;;;21.43;15.13;;;;;;;19.07;78.60;99861.42;253822;1107;116089;-67
2021/07/10 00:52:26;;;;;;;24.97;14.53;;;;;;;18.99;78.59;99851.24;254650;1103;115799;-64
2021/07/10 00:57:29;;;;;;;14.93;12.18;;;;;;;18.95;78.84;99842.13;254356;1107;116330;-67
2021/07/10 01:02:34;;;;;;;18.48;11.53;;;;;;;18.86;78.51;99844.64;254305;1108;115534;-69
2021/07/10 01:07:39;;;;;;;11.85;10.70;;;;;;;18.75;78.53;99838.53;254204;1102;115713;-69
2021/07/10 01:12:47;;;;;;;11.93;10.63;;;;;;;18.76;78.92;99847.44;253885;1108;117568;-69
2021/07/10 01:17:51;;;;;;;12.78;10.48;;;;;;;18.74;78.89;99865.83;254605;1108;117220;-69
2021/07/10 01:22:56;;;;;;;14.28;9.00;;;;;;;18.71;78.72;99871.80;253777;1108;115457;-69
2021/07/10 01:28:00;;;;;;;10.90;9.88;;;;;;;18.63;78.78;99886.73;253792;1107;114908;-69
2021/07/10 01:33:05;;;;;;;13.33;9.33;;;;;;;18.62;78.84;99901.33;253707;1107;115922;-68
2021/07/10 01:38:12;;;;;;;4.83;4.38;;;;;;;18.48;78.50;99911.13;253793;1107;116034;-67
2021/07/10 01:43:16;;;;;;;3.53;3.30;;;;;;;18.23;77.99;99920.22;254825;1107;115647;-68
2021/07/10 01:48:21;;;;;;;6.83;3.55;;;;;;;18.11;78.14;99933.23;254806;1107;115645;-69
2021/07/10 01:53:25;;;;;;;3.98;3.68;;;;;;;18.02;77.91;99940.33;253834;1107;115690;-68
2021/07/10 01:58:29;;;;;;;6.73;3.40;;;;;;;17.98;78.09;99950.05;253992;1108;116911;-68
2021/07/10 02:03:32;;;;;;;4.03;3.03;;;;;;;17.92;78.07;99946.58;254997;1108;115910;-68
2021/07/10 02:08:37;;;;;;;3.50;3.20;;;;;;;17.86;77.79;99963.86;254549;1107;115564;-68
2021/07/10 02:13:40;;;;;;;4.05;2.48;;;;;;;17.68;77.61;99978.78;255074;1103;116299;-68
2021/07/10 02:18:43;;;;;;;3.23;2.93;;;;;;;17.59;77.33;99985.78;255610;1107;116613;-68
2021/07/10 02:23:48;;;;;;;6.63;2.83;;;;;;;17.57;77.75;99987.13;254188;1107;116009;-68
2021/07/10 02:28:52;;;;;;;4.03;2.73;;;;;;;17.51;77.51;99970.97;255069;1108;115962;-69
2021/07/10 02:33:55;;;;;;;8.45;3.15;;;;;;;17.44;77.82;99983.11;255202;1103;116065;-68
2021/07/10 02:38:59;;;;;;;2.60;2.40;;;;;;;17.37;77.52;99983.42;253667;1107;115991;-67
2021/07/10 02:44:04;;;;;;;4.25;2.85;;;;;;;17.29;77.71;99983.97;254158;1108;116357;-66
2021/07/10 02:49:07;;;;;;;2.53;2.43;;;;;;;17.28;77.75;99981.55;253230;1108;116010;-67
2021/07/10 02:54:12;;;;;;;2.30;2.10;;;;;;;17.23;77.42;99970.78;254763;1108;115791;-66
2021/07/10 02:59:15;;;;;;;1.88;1.78;;;;;;;17.12;77.55;99968.09;254126;1103;116354;-67
2021/07/10 03:04:17;;;;;;;3.60;2.50;;;;;;;17.02;77.47;99960.05;255259;1107;115876;-67
2021/07/10 03:09:21;;;;;;;7.50;2.27;;;;;;;16.93;77.09;99960.86;254269;1102;116224;-66
2021/07/10 03:14:24;;;;;;;2.88;2.18;;;;;;;16.82;77.44;99960.05;254569;1108;116471;-66
2021/07/10 03:19:27;;;;;;;4.88;2.03;;;;;;;16.76;77.64;99961.96;254776;1107;115829;-67
2021/07/10 03:24:31;;;;;;;3.93;1.47;;;;;;;16.74;77.66;99958.73;255399;1108;117273;-67
2021/07/10 03:29:34;;;;;;;3.97;1.70;;;;;;;16.69;77.65;99971.38;254961;1108;115524;-68
2021/07/10 03:34:37;;;;;;;1.00;1.00;;;;;;;16.68;77.62;99977.83;255412;1107;114899;-68
2021/07/10 03:39:40;;;;;;;1.83;1.73;;;;;;;16.64;77.66;99990.20;254356;1108;115063;-68
2021/07/10 03:44:44;;;;;;;1.10;1.10;;;;;;;16.65;77.68;99995.33;254670;1108;117859;-67
2021/07/10 03:49:48;;;;;;;3.63;1.87;;;;;;;16.70;77.71;99994.52;255122;1108;114672;-68
2021/07/10 03:54:52;;;;;;;1.48;1.15;;;;;;;16.70;77.57;99999.91;255463;1107;114902;-67
2021/07/10 03:59:55;;;;;;;4.40;1.40;;;;;;;16.73;77.60;99996.68;256384;1108;116058;-67
2021/07/10 04:04:59;;;;;;;0.97;0.90;;;;;;;16.77;77.52;99989.69;255741;1107;114979;-68
2021/07/10 04:10:05;;;;;;;1.63;1.53;;;;;;;16.82;77.46;99976.20;256402;1108;114651;-68
2021/07/10 04:15:09;;;;;;;4.15;1.58;;;;;;;16.85;77.12;99981.05;255101;1108;114427;-67
2021/07/10 04:20:18;;;;;;;4.00;1.57;;;;;;;16.77;77.29;99990.50;253456;1108;115812;-67
2021/07/10 04:25:21;;;;;;;5.37;1.73;;;;;;;16.77;77.17;99989.69;254298;1107;115672;-68
2021/07/10 04:30:24;;;;;;;2.97;1.40;;;;;;;16.82;77.35;99982.39;254600;1107;115524;-68
2021/07/10 04:35:27;;;;;;;1.70;1.60;;;;;;;16.91;77.13;99990.75;254042;1107;116218;-65
2021/07/10 04:40:30;;;;;;;4.25;1.35;;;;;;;17.00;76.94;99991.83;253191;1107;115260;-67
2021/07/10 04:45:33;;;;;;;1.03;1.03;;;;;;;17.16;76.69;99997.99;252415;1107;116097;-67
2021/07/10 04:50:36;;;;;;;2.58;2.38;;;;;;;17.41;76.93;100005.25;253588;1107;116318;-67
2021/07/10 04:55:42;;;;;;;1.47;1.13;;;;;;;17.56;75.92;100001.69;254615;1103;115505;-68
2021/07/10 05:00:46;;;;;;;3.28;1.65;;;;;;;17.79;75.83;100017.27;254092;1107;115468;-67
2021/07/10 05:05:49;;;;;;;0.80;0.80;;;;;;;18.29;75.39;100027.05;254535;1108;115609;-67
2021/07/10 05:10:53;;;;;;;0.88;0.88;;;;;;;18.88;74.13;100020.73;253121;1108;116210;-68
2021/07/10 05:15:57;;;;;;;0.80;0.80;;;;;;;19.78;73.11;100010.13;254775;1107;115586;-68
2021/07/10 05:21:00;;;;;;;6.87;1.80;;;;;;;20.66;71.97;100016.00;254233;1108;115627;-68
2021/07/10 05:26:04;;;;;;;5.50;1.20;;;;;;;22.45;69.94;100024.03;254456;1108;116291;-68
2021/07/10 05:31:07;;;;;;;1.10;1.03;;;;;;;24.43;68.06;100023.45;254217;1103;116172;-67
2021/07/10 05:36:11;;;;;;;2.73;0.78;;;;;;;26.22;65.12;100022.47;254066;1107;118197;-68
2021/07/10 05:41:15;;;;;;;2.50;1.00;;;;;;;28.82;60.54;100029.27;254307;1108;115716;-67
2021/07/10 05:46:19;;;;;;;1.65;0.90;;;;;;;28.24;59.64;100034.21;254723;1108;117114;-69
2021/07/10 05:51:22;;;;;;;0.83;0.83;;;;;;;26.55;59.18;100038.19;254217;1107;116380;-69
2021/07/10 05:56:26;;;;;;;0.85;0.85;;;;;;;25.09;59.88;100032.23;256170;1107;116882;-68
2021/07/10 06:01:30;;;;;;;0.70;0.70;;;;;;;23.95;60.41;100034.38;255118;1107;115039;-69
2021/07/10 06:06:34;;;;;;;2.95;0.90;;;;;;;23.09;61.25;100030.14;255095;1103;115479;-69
2021/07/10 06:11:38;;;;;;;0.88;0.88;;;;;;;22.35;62.14;100035.11;255899;1107;116458;-69
2021/07/10 06:16:41;;;;;;;1.10;1.00;;;;;;;21.59;62.65;100030.43;256004;1108;115756;-68
2021/07/10 06:21:46;;;;;;;0.83;0.83;;;;;;;21.01;63.73;100028.98;253292;1107;116080;-69
2021/07/10 06:26:49;;;;;;;1.00;1.00;;;;;;;20.83;64.68;100046.06;254317;1107;116051;-67
2021/07/10 06:31:57;;;;;;;1.98;1.13;;;;;;;20.83;64.51;100054.19;254936;1103;116359;-68
2021/07/10 06:37:00;;;;;;;0.85;0.85;;;;;;;20.77;65.25;100063.52;253634;1108;115507;-69
2021/07/10 06:42:03;;;;;;;0.70;0.70;;;;;;;20.61;65.58;100057.51;254007;1108;137169;-68
2021/07/10 06:47:06;;;;;;;1.48;1.38;;;;;;;20.35;65.41;100069.77;254608;1107;115260;-68
2021/07/10 06:52:10;;;;;;;1.08;1.05;;;;;;;20.07;66.03;100076.89;253734;1107;115844;-68
2021/07/10 06:57:13;;;;;;;2.23;1.15;;;;;;;19.76;66.42;100082.64;254574;1107;115871;-68
2021/07/10 07:02:17;;;;;;;1.80;1.25;;;;;;;19.53;66.49;100071.81;254068;1107;116127;-69
2021/07/10 07:07:20;;;;;;;1.50;1.40;;;;;;;19.16;66.74;100079.41;253013;1107;115854;-68
2021/07/10 07:12:24;;;;;;;1.17;1.00;;;;;;;19.02;67.76;100075.72;253761;1108;115334;-68
2021/07/10 07:17:27;;;;;;;1.73;1.63;;;;;;;18.87;68.02;100080.44;253828;1108;116040;-67
2021/07/10 07:22:29;;;;;;;0.98;0.98;;;;;;;18.86;68.32;100079.63;255032;1103;114672;-67
2021/07/10 07:27:33;;;;;;;3.00;1.45;;;;;;;18.84;68.07;100081.80;254011;1107;115989;-66
2021/07/10 07:32:37;;;;;;;1.63;1.53;;;;;;;18.77;68.58;100078.61;254930;1107;115394;-66
2021/07/10 07:37:41;;;;;;;4.98;1.35;;;;;;;18.68;68.81;100082.98;254037;1107;117566;-66
2021/07/10 07:42:49;;;;;;;1.15;1.15;;;;;;;18.67;68.82;100086.77;253994;1108;115907;-67
2021/07/10 07:47:52;;;;;;;3.10;1.30;;;;;;;18.78;69.07;100082.92;255470;1108;116288;-68
2021/07/10 07:52:57;;;;;;;1.03;1.00;;;;;;;18.92;68.96;100088.52;255128;1107;115677;-67
2021/07/10 07:58:01;;;;;;;1.65;1.48;;;;;;;19.17;69.23;100085.61;255303;1108;116692;-67
2021/07/10 08:03:04;;;;;;;1.50;1.08;;;;;;;19.37;69.09;100093.53;256225;1108;116471;-68
2021/07/10 08:08:07;;;;;;;2.20;1.90;;;;;;;19.40;68.38;100100.27;254665;1108;115659;-68
2021/07/10 08:13:11;;;;;;;1.08;1.08;;;;;;;19.34;68.84;100102.21;255511;1107;114848;-68
2021/07/10 08:18:15;;;;;;;1.28;1.28;;;;;;;19.27;68.53;100101.72;255976;1108;115278;-68
2021/07/10 08:23:19;;;;;;;1.30;1.20;;;;;;;19.19;68.84;100105.05;255040;1108;116143;-68
2021/07/10 08:28:23;;;;;;;2.35;1.60;;;;;;;19.23;68.98;100113.41;255200;1108;116018;-67
2021/07/10 08:33:27;;;;;;;1.38;1.38;;;;;;;19.15;68.98;100118.32;255560;1108;115851;-67
2021/07/10 08:38:30;;;;;;;1.00;0.90;;;;;;;19.28;68.76;100119.55;255335;1108;116294;-67
2021/07/10 08:43:35;;;;;;;3.30;1.63;;;;;;;19.46;69.23;100115.37;254692;1108;116149;-67
2021/07/10 08:48:39;;;;;;;1.60;1.60;;;;;;;19.46;68.80;100120.77;255116;1108;116924;-69
2021/07/10 08:53:44;;;;;;;1.33;1.23;;;;;;;19.50;68.98;100125.36;254261;1108;116686;-67
2021/07/10 08:58:46;;;;;;;1.30;1.30;;;;;;;19.45;68.41;100124.56;255215;1108;116829;-67
2021/07/10 09:03:50;;;;;;;1.17;1.17;;;;;;;19.28;68.15;100127.66;254583;1108;117535;-67
2021/07/10 09:09:00;;;;;;;5.03;1.83;;;;;;;19.27;68.49;100133.35;254279;1108;118163;-66
2021/07/10 09:14:05;;;;;;;1.28;1.28;;;;;;;19.30;68.53;100132.78;253237;1108;116100;-66
2021/07/10 09:19:10;;;;;;;1.80;1.70;;;;;;;19.40;68.40;100135.42;254451;1108;116282;-66
2021/07/10 09:24:16;;;;;;;8.95;1.78;;;;;;;19.49;68.50;100142.65;254283;1108;117360;-66
2021/07/10 09:29:22;;;;;;;3.38;2.08;;;;;;;19.55;68.75;100137.23;254796;1108;116901;-66
2021/07/10 09:34:41;;;;;;;1.62;1.52;;;;;;;19.56;68.03;100147.77;254739;1107;116639;-67
2021/07/10 09:40:03;;;;;;;3.93;2.00;;;;;;;19.62;68.33;100160.13;254536;1108;116171;-69
2021/07/10 09:45:15;;;;;;;6.43;2.03;;;;;;;19.82;68.43;100161.86;255155;1108;118109;-69
2021/07/10 09:50:25;;;;;;;2.30;2.10;;;;;;;19.89;68.07;100166.91;254733;1108;116694;-68
2021/07/10 09:55:28;;;;;;;1.48;1.48;;;;;;;20.02;67.81;100167.05;254020;1107;116065;-68
2021/07/10 10:00:31;;;;;;;3.17;2.33;;;;;;;20.03;68.18;100168.67;253322;1108;116863;-69
2021/07/10 10:05:41;;;;;;;2.50;2.30;;;;;;;20.02;67.91;100175.17;253740;1103;116605;-67
2021/07/10 10:10:53;;;;;;;1.83;1.73;;;;;;;19.87;67.89;100178.05;255878;1108;117464;-68
2021/07/10 10:15:57;;;;;;;3.78;1.53;;;;;;;19.82;67.78;100178.09;254764;1108;116586;-67
2021/07/10 10:21:01;;;;;;;4.13;1.73;;;;;;;19.78;67.93;100174.33;253718;1108;115904;-69
2021/07/10 10:26:04;;;;;;;1.65;1.65;;;;;;;19.91;68.10;100186.38;254684;1103;115684;-68
2021/07/10 10:31:08;;;;;;;2.10;2.00;;;;;;;20.05;68.12;100180.02;253745;1103;116573;-68
2021/07/10 10:36:11;;;;;;;6.03;1.75;;;;;;;20.15;68.00;100184.52;253619;1107;115139;-69
2021/07/10 10:41:19;;;;;;;2.25;2.15;;;;;;;20.27;67.71;100179.50;253837;1102;116198;-68
2021/07/10 10:46:25;;;;;;;2.08;2.00;;;;;;;20.43;67.55;100180.98;254646;1108;115664;-69
2021/07/10 10:51:35;;;;;;;3.95;1.80;;;;;;;20.56;67.65;100181.36;254618;1107;116778;-68
2021/07/10 10:56:40;;;;;;;2.33;2.20;;;;;;;20.57;67.31;100181.06;253836;1107;116925;-69
2021/07/10 11:01:43;;;;;;;2.20;2.10;;;;;;;20.84;67.11;100186.67;253808;1108;115850;-69
2021/07/10 11:06:46;;;;;;;2.70;2.50;;;;;;;21.19;67.07;100176.42;253556;1107;117168;-66
2021/07/10 11:11:48;;;;;;;2.53;2.43;;;;;;;21.84;66.98;100179.19;254240;1107;115853;-66
2021/07/10 11:17:08;;;;;;;5.03;2.63;;;;;;;22.04;66.06;100194.33;254667;1107;115093;-66
2021/07/10 11:23:02;;;;;;;3.35;2.43;;;;;;;22.05;65.65;100187.79;253967;1103;115752;-65
2021/07/10 11:28:22;;;;;;;2.33;2.23;;;;;;;21.79;65.03;100190.94;254452;1108;115415;-68
2021/07/10 11:33:54;;;;;;;1.63;1.63;;;;;;;21.66;64.73;100193.63;254266;1107;115490;-68
2021/07/10 11:38:59;;;;;;;2.53;2.43;;;;;;;21.77;65.22;100195.05;253548;1108;115641;-69
2021/07/10 11:44:14;;;;;;;4.58;3.40;;;;;;;21.85;64.62;100188.94;253814;1107;115627;-67
2021/07/10 11:49:36;;;;;;;3.18;2.95;;;;;;;21.97;64.91;100191.19;255429;1103;120411;-68
2021/07/10 11:54:52;;;;;;;2.77;2.57;;;;;;;22.48;65.09;100199.19;253561;1108;116007;-67
2021/07/10 11:59:55;;;;;;;2.03;1.93;;;;;;;22.70;64.47;100198.46;253553;1108;114969;-68
2021/07/10 12:05:14;;;;;;;2.28;1.83;;;;;;;22.79;63.82;100202.11;254355;1108;116069;-68
2021/07/10 12:10:17;;;;;;;2.85;2.70;;;;;;;22.81;63.34;100203.42;256229;1107;115846;-67
2021/07/10 12:15:33;;;;;;;3.43;2.33;;;;;;;22.86;63.06;100201.70;256250;1107;115413;-68
2021/07/10 12:20:45;;;;;;;2.63;2.13;;;;;;;22.64;62.72;100202.39;253902;1103;115956;-67
2021/07/10 12:26:19;;;;;;;2.07;2.00;;;;;;;22.46;63.04;100202.21;254330;1107;115671;-70
2021/07/10 12:31:35;;;;;;;2.43;2.18;;;;;;;22.01;63.18;100206.58;255553;1107;115307;-67
2021/07/10 12:36:44;;;;;;;2.33;2.13;;;;;;;21.72;63.51;100206.78;252886;1108;115749;-67
2021/07/10 12:41:55;;;;;;;2.30;2.20;;;;;;;21.76;64.10;100191.53;254780;1107;115552;-68
2021/07/10 12:46:59;;;;;;;2.35;2.25;;;;;;;22.05;64.61;100199.45;253464;1108;115838;-68
2021/07/10 12:52:05;;;;;;;4.53;2.57;;;;;;;22.26;64.85;100188.23;254078;1102;115961;-67
2021/07/10 12:57:14;;;;;;;2.10;2.00;;;;;;;22.36;64.29;100188.81;253756;1101;116162;-68
2021/07/10 13:02:29;;;;;;;2.63;2.48;;;;;;;22.37;64.75;100179.56;253906;1107;116328;-67
2021/07/10 13:07:35;;;;;;;2.55;2.35;;;;;;;22.23;64.47;100176.06;255241;1107;116254;-67
2021/07/10 13:12:47;;;;;;;3.47;2.43;;;;;;;22.24;63.95;100172.23;253656;1103;116726;-67
2021/07/10 13:18:16;;;;;;;1.95;1.80;;;;;;;22.32;63.58;100171.52;253525;1108;115720;-69
2021/07/10 13:23:43;;;;;;;2.50;2.30;;;;;;;22.48;64.37;100172.83;252479;1108;116219;-67
2021/07/10 13:28:47;;;;;;;1.95;1.85;;;;;;;22.80;63.73;100169.20;253820;1103;116623;-67
2021/07/10 13:33:57;;;;;;;12.78;2.58;;;;;;;23.02;63.63;100164.91;254357;1108;115399;-69
2021/07/10 13:39:14;;;;;;;2.58;2.48;;;;;;;23.39;63.20;100166.48;253895;1102;115830;-69
2021/07/10 13:44:22;;;;;;;3.80;2.53;;;;;;;23.60;62.33;100159.44;254535;1108;115443;-68
2021/07/10 13:49:28;;;;;;;2.13;1.93;;;;;;;23.85;61.63;100158.78;253804;1107;116102;-68
2021/07/10 13:54:33;;;;;;;4.40;2.15;;;;;;;23.76;61.51;100160.67;253518;1103;115162;-68
2021/07/10 13:59:38;;;;;;;2.08;1.98;;;;;;;23.62;60.88;100157.22;253924;1103;115605;-70
2021/07/10 14:04:41;;;;;;;3.63;2.23;;;;;;;23.43;61.22;100160.12;254407;1108;115570;-70
2021/07/10 14:09:44;;;;;;;2.18;2.08;;;;;;;23.44;61.47;100160.92;254903;1108;116484;-68
2021/07/10 14:14:46;;;;;;;2.58;2.40;;;;;;;23.46;61.06;100156.78;254790;1108;115970;-70
2021/07/10 14:19:49;;;;;;;1.78;1.68;;;;;;;23.60;60.60;100147.75;255758;1108;115758;-70
2021/07/10 14:24:52;;;;;;;2.20;2.08;;;;;;;24.05;60.32;100149.28;256143;1108;116211;-70
2021/07/10 14:32:57;;;;;;;4.40;2.40;;;;;;;24.10;59.15;100145.62;262000;1090;103285;-70
2021/07/10 14:38:04;;;;;;;2.78;2.58;;;;;;;23.97;59.20;100144.59;254256;1104;114796;-70
2021/07/10 17:12:47;;;;;;;2.85;2.40;;;;;;;22.15;60.76;100079.00;252690;1110;120564;-68
2021/07/10 17:17:53;;;;;;;2.90;2.65;;;;;;;22.10;61.13;100087.25;252004;1110;117002;-69
2021/07/10 17:23:01;;;;;;;3.33;1.95;;;;;;;22.06;61.14;100086.23;252390;1105;203407;-68
2021/07/10 17:28:04;;;;;;;1.70;1.70;;;;;;;22.03;61.78;100097.70;252564;1110;116725;-69
2021/07/10 17:33:08;;;;;;;2.43;2.30;;;;;;;21.97;62.09;100102.42;252504;1110;116307;-69
2021/07/10 17:38:11;;;;;;;4.60;3.00;;;;;;;21.89;62.33;100105.02;252921;1110;116381;-68
2021/07/10 17:43:14;;;;;;;2.90;1.90;;;;;;;21.79;62.29;100100.58;252407;1110;116757;-69
2021/07/10 17:48:17;;;;;;;2.65;2.45;;;;;;;21.71;62.91;100099.35;252298;1110;114857;-68
2021/07/10 17:53:19;;;;;;;2.48;2.30;;;;;;;21.62;63.49;100101.17;252413;1110;114998;-70
2021/07/10 17:58:22;;;;;;;3.28;2.30;;;;;;;21.51;63.89;100107.87;253217;1110;115746;-68
2021/07/10 18:03:25;;;;;;;3.15;2.85;;;;;;;21.39;64.00;100112.98;253179;1110;115385;-67
2021/07/10 18:08:28;;;;;;;5.33;2.35;;;;;;;21.28;64.30;100114.23;253579;1110;115132;-69
2021/07/10 18:13:31;;;;;;;4.37;2.80;;;;;;;21.17;64.68;100108.94;251944;1110;115634;-70
2021/07/10 18:18:37;;;;;;;3.10;2.80;;;;;;;21.05;65.10;100113.23;252752;1110;115290;-68
2021/07/10 18:23:39;;;;;;;3.43;2.25;;;;;;;20.89;65.28;100112.63;253090;1110;115236;-68
2021/07/10 18:28:42;;;;;;;2.95;2.75;;;;;;;20.74;65.63;100116.39;251930;1110;115293;-69
2021/07/10 18:33:45;;;;;;;3.53;3.33;;;;;;;20.54;65.62;100122.06;252667;1110;115370;-67
2021/07/10 18:38:47;;;;;;;2.65;2.45;;;;;;;20.28;66.25;100121.55;253178;1110;116222;-70
2021/07/10 18:43:50;;;;;;;3.50;3.30;;;;;;;20.11;66.43;100130.16;252408;1110;115189;-70
2021/07/10 18:48:53;;;;;;;3.58;3.30;;;;;;;19.92;66.39;100125.75;252847;1110;115897;-70
2021/07/10 18:53:56;;;;;;;4.70;3.28;;;;;;;19.65;66.58;100124.41;252095;1110;115597;-68
2021/07/10 18:58:59;;;;;;;3.35;3.08;;;;;;;19.46;67.35;100132.39;253040;1110;114958;-67
2021/07/10 19:04:03;;;;;;;4.10;3.73;;;;;;;19.37;67.56;100133.28;252863;1110;115556;-68
2021/07/10 19:09:08;;;;;;;3.63;3.13;;;;;;;19.18;67.50;100139.38;252357;1110;115856;-69
2021/07/10 19:14:12;;;;;;;3.30;3.05;;;;;;;19.00;67.72;100145.44;251989;1110;116190;-69
2021/07/10 19:19:16;;;;;;;4.20;3.90;;;;;;;18.84;68.17;100136.63;252132;1111;117169;-69
2021/07/10 19:24:20;;;;;;;3.30;3.10;;;;;;;18.66;68.37;100131.05;252340;1110;116891;-67
2021/07/10 19:29:24;;;;;;;4.63;3.70;;;;;;;18.47;68.85;100131.66;251982;1110;115624;-68
2021/07/10 19:34:28;;;;;;;8.55;4.05;;;;;;;18.36;68.71;100124.69;252608;1110;118833;-68
2021/07/10 19:39:31;;;;;;;3.97;3.47;;;;;;;18.16;68.97;100140.95;253050;1110;116325;-67
2021/07/10 19:44:35;;;;;;;3.65;3.45;;;;;;;17.93;69.22;100126.20;252643;1110;116675;-68
2021/07/10 19:49:39;;;;;;;4.63;4.13;;;;;;;17.76;69.22;100133.77;253495;1110;115190;-68
2021/07/10 19:54:44;;;;;;;4.37;3.97;;;;;;;17.65;69.62;100127.59;253228;1110;116889;-68
2021/07/10 19:59:47;;;;;;;7.57;4.43;;;;;;;17.61;70.15;100125.68;253912;1110;115449;-68
2021/07/10 20:04:50;;;;;;;5.40;4.90;;;;;;;17.52;70.05;100125.41;254397;1110;115836;-68
2021/07/10 20:09:54;;;;;;;4.45;4.15;;;;;;;17.55;70.72;100124.88;254453;1110;115061;-68
2021/07/10 20:14:58;;;;;;;4.37;3.93;;;;;;;17.49;70.37;100124.06;254498;1110;115397;-69
2021/07/10 20:20:01;;;;;;;4.15;3.78;;;;;;;17.36;70.45;100118.42;254414;1110;116908;-69
2021/07/10 20:25:07;;;;;;;4.25;3.98;;;;;;;17.25;70.05;100127.58;253854;1110;115737;-68
2021/07/10 20:30:12;;;;;;;3.75;3.50;;;;;;;17.15;70.67;100123.79;253833;1110;116389;-68
2021/07/10 20:35:16;;;;;;;4.30;3.93;;;;;;;17.13;70.52;100131.33;252502;1110;115368;-67
2021/07/10 20:40:21;;;;;;;4.50;4.20;;;;;;;16.99;70.95;100127.56;252570;1110;116696;-68
2021/07/10 20:45:26;;;;;;;6.28;5.15;;;;;;;16.93;71.07;100122.42;252260;1110;117369;-67
2021/07/10 20:50:31;;;;;;;4.60;4.20;;;;;;;16.82;71.77;100122.40;252681;1110;116429;-68
2021/07/10 20:55:35;;;;;;;8.33;4.50;;;;;;;16.75;71.40;100126.44;252220;1111;116494;-68
2021/07/10 21:00:41;;;;;;;5.10;4.60;;;;;;;16.63;71.26;100129.33;252368;1110;117022;-68
2021/07/10 21:05:49;;;;;;;5.10;4.70;;;;;;;16.47;71.84;100131.17;251795;1110;115664;-68
2021/07/10 21:10:52;;;;;;;7.90;4.93;;;;;;;16.44;72.00;100130.89;252439;1110;115387;-67
2021/07/10 21:15:56;;;;;;;6.28;5.78;;;;;;;16.38;72.02;100138.13;253123;1110;115101;-68
2021/07/10 21:20:59;;;;;;;6.90;6.33;;;;;;;16.31;72.10;100142.13;253302;1110;115489;-68
2021/07/10 21:26:03;;;;;;;5.50;5.20;;;;;;;16.19;71.90;100146.92;252619;1110;116175;-67
2021/07/10 21:31:05;;;;;;;5.57;5.07;;;;;;;16.01;72.25;100157.03;251933;1111;116575;-67
2021/07/10 21:36:09;;;;;;;5.67;5.23;;;;;;;15.94;72.55;100150.26;252441;1104;116741;-67
2021/07/10 21:41:14;;;;;;;6.80;5.40;;;;;;;15.93;72.78;100151.33;252147;1110;116172;-68
2021/07/10 21:46:18;;;;;;;7.28;6.68;;;;;;;15.97;73.39;100147.05;253624;1110;115247;-69
2021/07/10 21:51:22;;;;;;;9.13;6.67;;;;;;;15.92;72.46;100145.14;254497;1110;116080;-68
2021/07/10 21:56:25;;;;;;;9.60;6.93;;;;;;;15.88;72.64;100145.95;253645;1110;115172;-69
2021/07/10 22:01:38;;;;;;;7.55;6.95;;;;;;;15.91;73.40;100154.27;252546;1110;116812;-68
2021/07/10 22:06:44;;;;;;;9.73;6.03;;;;;;;15.83;72.48;100146.72;254085;1108;117842;-68
2021/07/10 22:11:51;;;;;;;7.80;7.10;;;;;;;15.80;72.84;100144.55;254458;1111;116807;-69
2021/07/10 22:16:54;;;;;;;11.23;7.33;;;;;;;15.70;73.02;100142.59;254760;1110;116895;-68
2021/07/10 22:21:57;;;;;;;10.93;7.77;;;;;;;15.66;73.25;100137.98;252269;1110;116510;-68
2021/07/10 22:27:01;;;;;;;8.33;7.45;;;;;;;15.56;72.73;100132.52;252645;1110;115419;-69
2021/07/10 22:32:04;;;;;;;8.93;7.15;;;;;;;15.49;73.19;100130.86;252766;1110;117080;-68
2021/07/10 22:37:09;;;;;;;9.47;6.93;;;;;;;15.46;73.60;100119.81;252389;1110;115347;-68
2021/07/10 22:42:14;;;;;;;7.87;7.17;;;;;;;15.37;73.49;100113.29;253799;1110;119961;-69
2021/07/10 22:47:17;;;;;;;6.43;5.93;;;;;;;15.27;73.60;100107.86;251987;1110;115194;-69
2021/07/10 22:52:21;;;;;;;6.90;6.30;;;;;;;15.22;73.92;100110.50;252521;1110;117881;-68
2021/07/10 22:57:24;;;;;;;7.78;5.80;;;;;;;15.24;73.53;100116.42;251659;1108;116700;-69
2021/07/10 23:02:28;;;;;;;7.28;6.68;;;;;;;15.25;74.36;100120.73;252812;1110;116281;-69
2021/07/10 23:07:30;;;;;;;9.25;6.20;;;;;;;15.21;73.92;100122.30;253173;1110;115940;-68
2021/07/10 23:12:34;;;;;;;6.88;6.10;;;;;;;15.01;73.58;100123.72;252314;1110;114357;-68
2021/07/10 23:17:37;;;;;;;7.10;5.25;;;;;;;14.85;73.63;100127.34;252737;1110;117010;-68
2021/07/10 23:22:40;;;;;;;6.60;6.00;;;;;;;14.73;73.25;100121.30;251839;1110;115811;-69
2021/07/10 23:27:43;;;;;;;5.30;4.90;;;;;;;14.61;74.12;100113.41;252420;1110;115106;-69
2021/07/10 23:32:59;;;;;;;6.83;6.33;;;;;;;14.56;73.81;100116.03;252189;1110;116127;-69
2021/07/10 23:38:04;;;;;;;7.17;6.67;;;;;;;14.55;74.61;100103.67;252247;1110;115374;-68
2021/07/10 23:43:08;;;;;;;7.45;6.75;;;;;;;14.52;74.31;100106.05;253351;1106;115044;-69
2021/07/10 23:48:12;;;;;;;12.73;6.85;;;;;;;14.41;74.14;100102.42;253255;1110;115114;-68
2021/07/10 23:53:15;;;;;;;7.98;7.15;;;;;;;14.32;74.59;100094.00;252634;1110;115834;-68
2021/07/10 23:58:19;;;;;;;8.03;7.28;;;;;;;14.27;74.31;100093.94;252641;1110;115371;-68
